createdAt,value
2023-05-30T00:01:47.603Z,17.16
2023-05-30T00:04:50.632Z,17.06
2023-05-30T00:07:53.351Z,17.12
2023-05-30T00:10:56.697Z,17.12
2023-05-30T00:13:59.653Z,17.14
2023-05-30T00:17:02.607Z,17.14
2023-05-30T00:20:05.868Z,17.10
2023-05-30T00:23:08.876Z,16.96
2023-05-30T00:26:11.585Z,16.90
2023-05-30T00:29:15.390Z,16.87
2023-05-30T00:32:18.044Z,16.92
2023-05-30T00:35:22.037Z,16.91
2023-05-30T00:38:25.074Z,16.88
2023-05-30T00:41:28.504Z,16.78
2023-05-30T00:44:31.681Z,16.75
2023-05-30T00:47:36.940Z,16.82
2023-05-30T00:50:40.329Z,16.62
2023-05-30T00:53:44.391Z,16.66
2023-05-30T00:56:48.327Z,16.50
2023-05-30T00:59:51.411Z,16.42
2023-05-30T01:03:01.410Z,16.32
2023-05-30T01:06:07.555Z,16.46
2023-05-30T01:09:10.728Z,16.45
2023-05-30T01:12:21.988Z,16.27
2023-05-30T01:15:29.273Z,16.30
2023-05-30T01:18:45.857Z,16.33
2023-05-30T01:21:54.750Z,16.35
2023-05-30T01:25:22.255Z,16.24
2023-05-30T01:28:29.592Z,16.17
2023-05-30T01:31:34.613Z,16.18
2023-05-30T01:34:37.445Z,16.36
2023-05-30T01:37:40.358Z,16.29
2023-05-30T01:40:55.185Z,16.31
2023-05-30T01:44:16.392Z,16.36
2023-05-30T01:47:44.425Z,16.39
2023-05-30T01:50:51.189Z,16.28
2023-05-30T01:53:59.411Z,16.29
2023-05-30T01:57:09.817Z,16.43
2023-05-30T02:00:15.999Z,16.54
2023-05-30T02:03:19.634Z,16.55
2023-05-30T02:06:23.757Z,16.39
2023-05-30T02:09:27.615Z,16.40
2023-05-30T02:12:30.608Z,16.37
2023-05-30T02:15:33.637Z,16.45
2023-05-30T02:18:36.511Z,16.43
2023-05-30T02:21:40.689Z,16.40
2023-05-30T02:24:45.789Z,16.56
2023-05-30T02:27:50.650Z,16.55
2023-05-30T02:30:53.516Z,16.50
2023-05-30T02:33:56.542Z,16.29
2023-05-30T02:37:00.377Z,16.49
2023-05-30T02:40:04.523Z,16.41
2023-05-30T02:43:16.865Z,16.31
2023-05-30T02:46:23.577Z,16.37
2023-05-30T02:49:26.703Z,16.39
2023-05-30T02:52:30.218Z,16.31
2023-05-30T02:55:33.809Z,16.15
2023-05-30T02:58:38.407Z,16.02
2023-05-30T03:01:41.475Z,16.17
2023-05-30T03:04:46.742Z,16.05
2023-05-30T03:07:49.763Z,16.07
2023-05-30T03:10:52.675Z,15.95
2023-05-30T03:13:55.481Z,16.15
2023-05-30T03:16:58.496Z,16.24
2023-05-30T03:20:01.763Z,16.31
2023-05-30T03:23:04.831Z,16.39
2023-05-30T03:26:08.134Z,16.58
2023-05-30T03:29:11.103Z,16.58
2023-05-30T03:32:13.992Z,16.44
2023-05-30T03:35:17.598Z,16.43
2023-05-30T03:38:22.259Z,16.30
2023-05-30T03:41:26.044Z,16.31
2023-05-30T03:44:28.771Z,16.39
2023-05-30T03:47:31.757Z,16.45
2023-05-30T03:50:36.392Z,16.57
2023-05-30T03:53:39.724Z,16.74
2023-05-30T03:56:42.614Z,16.65
2023-05-30T03:59:46.879Z,16.58
2023-05-30T04:02:49.570Z,16.66
2023-05-30T04:05:52.640Z,16.60
2023-05-30T04:08:55.472Z,16.53
2023-05-30T04:11:58.512Z,16.59
2023-05-30T04:15:01.242Z,16.74
2023-05-30T04:18:04.453Z,16.88
2023-05-30T04:21:08.789Z,17.05
2023-05-30T04:24:11.968Z,17.08
2023-05-30T04:27:14.706Z,17.25
2023-05-30T04:30:17.941Z,17.38
2023-05-30T04:33:20.978Z,17.42
2023-05-30T04:36:24.357Z,17.44
2023-05-30T04:39:27.638Z,17.46
2023-05-30T04:42:34.959Z,17.60
2023-05-30T04:45:38.357Z,17.97
2023-05-30T04:48:41.328Z,17.96
2023-05-30T04:51:44.970Z,17.90
2023-05-30T04:54:48.453Z,18.25
2023-05-30T04:57:51.161Z,18.28
2023-05-30T05:00:55.000Z,18.37
2023-05-30T05:03:58.031Z,18.45
2023-05-30T05:07:01.104Z,18.66
2023-05-30T05:10:03.985Z,18.66
2023-05-30T05:13:06.884Z,18.68
2023-05-30T05:16:09.752Z,18.71
2023-05-30T05:19:12.793Z,18.62
2023-05-30T05:22:15.518Z,18.73
2023-05-30T05:25:18.414Z,18.76
2023-05-30T05:28:21.123Z,18.46
2023-05-30T05:31:24.327Z,18.71
2023-05-30T05:34:27.434Z,18.71
2023-05-30T05:37:30.647Z,18.69
2023-05-30T05:40:33.366Z,18.69
2023-05-30T05:43:37.389Z,18.90
2023-05-30T05:46:40.121Z,18.88
2023-05-30T05:49:43.048Z,18.88
2023-05-30T05:52:45.702Z,18.82
2023-05-30T05:55:49.601Z,18.80
2023-05-30T05:58:52.237Z,18.99
2023-05-30T06:01:55.333Z,18.99
2023-05-30T06:04:58.303Z,19.02
2023-05-30T06:08:01.122Z,19.01
2023-05-30T06:11:04.147Z,19.14
2023-05-30T06:14:06.882Z,19.33
2023-05-30T06:17:09.889Z,19.16
2023-05-30T06:20:13.177Z,19.16
2023-05-30T06:23:16.145Z,19.40
2023-05-30T06:26:18.842Z,19.38
2023-05-30T06:29:22.404Z,19.57
2023-05-30T06:32:25.269Z,19.71
2023-05-30T06:35:28.375Z,19.50
2023-05-30T06:38:31.075Z,19.81
2023-05-30T06:41:35.931Z,19.85
2023-05-30T06:44:38.998Z,19.57
2023-05-30T06:47:41.897Z,19.85
2023-05-30T06:50:44.696Z,19.93
2023-05-30T06:53:47.631Z,20.07
2023-05-30T06:56:50.416Z,19.85
2023-05-30T06:59:53.320Z,20.16
2023-05-30T07:02:56.412Z,19.91
2023-05-30T07:06:01.279Z,20.14
2023-05-30T07:09:04.083Z,20.19
2023-05-30T07:12:07.958Z,20.34
2023-05-30T07:15:11.159Z,20.67
2023-05-30T07:18:14.675Z,20.54
2023-05-30T07:21:17.431Z,20.90
2023-05-30T07:24:20.498Z,21.58
2023-05-30T07:27:23.237Z,22.21
2023-05-30T07:30:26.237Z,22.46
2023-05-30T07:33:29.659Z,22.59
2023-05-30T07:36:33.301Z,23.22
2023-05-30T07:39:36.372Z,23.29
2023-05-30T07:42:39.309Z,23.78
2023-05-30T07:45:42.320Z,23.06
2023-05-30T07:48:45.546Z,24.04
2023-05-30T07:51:49.358Z,24.09
2023-05-30T07:54:52.342Z,24.89
2023-05-30T07:57:55.066Z,24.31
2023-05-30T08:00:59.179Z,24.79
2023-05-30T08:04:02.653Z,24.46
2023-05-30T08:07:05.768Z,25.33
2023-05-30T08:10:09.315Z,25.38
2023-05-30T08:13:14.172Z,24.91
2023-05-30T08:16:17.284Z,24.37
2023-05-30T08:19:20.091Z,24.71
2023-05-30T08:22:25.221Z,23.83
2023-05-30T08:25:34.292Z,23.89
2023-05-30T08:28:37.205Z,23.59
2023-05-30T08:31:40.087Z,23.95
2023-05-30T08:34:44.097Z,23.13
2023-05-30T08:37:48.594Z,23.32
2023-05-30T08:40:52.993Z,22.91
2023-05-30T08:43:55.761Z,23.22
2023-05-30T08:47:00.405Z,23.24
2023-05-30T08:50:05.338Z,22.87
2023-05-30T08:53:13.183Z,23.02
2023-05-30T08:56:28.089Z,23.19
2023-05-30T08:59:31.513Z,23.48
2023-05-30T09:02:35.438Z,23.60
2023-05-30T09:05:39.899Z,23.54
2023-05-30T09:08:45.820Z,23.19
2023-05-30T09:11:49.000Z,23.31
2023-05-30T09:14:52.128Z,23.71
2023-05-30T09:17:56.238Z,23.56
2023-05-30T09:20:59.529Z,23.66
2023-05-30T09:24:05.046Z,23.39
2023-05-30T09:27:07.783Z,22.84
2023-05-30T09:30:11.838Z,23.16
2023-05-30T09:33:15.459Z,22.66
2023-05-30T09:36:27.740Z,23.19
2023-05-30T09:39:30.569Z,23.40
2023-05-30T09:42:50.860Z,23.81
2023-05-30T09:45:55.157Z,23.62
2023-05-30T09:49:15.820Z,23.86
2023-05-30T09:52:18.582Z,24.13
2023-05-30T09:55:21.792Z,24.01
2023-05-30T09:58:25.165Z,24.03
2023-05-30T10:01:39.689Z,23.94
2023-05-30T10:04:47.042Z,23.87
2023-05-30T10:07:52.231Z,24.06
2023-05-30T10:10:55.298Z,24.30
2023-05-30T10:13:57.986Z,24.69
2023-05-30T10:17:05.580Z,24.86
2023-05-30T10:20:12.726Z,24.83
2023-05-30T10:23:16.631Z,24.36
2023-05-30T10:26:22.083Z,24.15
2023-05-30T10:29:29.963Z,24.29
2023-05-30T10:32:43.453Z,25.10
2023-05-30T10:35:48.138Z,24.52
2023-05-30T10:38:59.500Z,24.38
2023-05-30T10:42:11.918Z,23.43
2023-05-30T10:45:46.910Z,24.07
2023-05-30T10:48:55.992Z,24.02
2023-05-30T10:52:06.874Z,23.76
2023-05-30T10:55:11.802Z,23.22
2023-05-30T10:58:39.933Z,22.72
2023-05-30T11:01:43.006Z,22.99
2023-05-30T11:04:51.150Z,22.96
2023-05-30T11:07:54.668Z,23.38
2023-05-30T11:10:57.405Z,23.53
2023-05-30T11:14:05.277Z,23.93
2023-05-30T11:17:08.658Z,24.54
2023-05-30T11:20:17.879Z,23.73
2023-05-30T11:23:23.045Z,24.58
2023-05-30T11:26:59.387Z,25.19
2023-05-30T11:30:02.578Z,24.95
2023-05-30T11:33:12.524Z,24.52
2023-05-30T11:36:15.590Z,24.76
2023-05-30T11:39:23.331Z,25.80
2023-05-30T11:42:27.284Z,25.13
2023-05-30T11:45:31.084Z,25.05
2023-05-30T11:48:33.980Z,25.41
2023-05-30T11:51:40.050Z,26.04
2023-05-30T11:54:43.011Z,26.11
2023-05-30T11:57:46.262Z,26.45
2023-05-30T12:00:49.337Z,25.56
2023-05-30T12:03:54.642Z,26.26
2023-05-30T12:07:07.409Z,25.42
2023-05-30T12:10:10.993Z,23.32
2023-05-30T12:13:13.808Z,24.00
2023-05-30T12:16:17.370Z,23.50
2023-05-30T12:19:20.112Z,23.48
2023-05-30T12:22:24.663Z,23.44
2023-05-30T12:25:28.106Z,23.78
2023-05-30T12:28:34.104Z,23.94
2023-05-30T12:31:37.312Z,23.77
2023-05-30T12:34:44.075Z,24.15
2023-05-30T12:37:46.873Z,24.90
2023-05-30T12:40:50.372Z,23.72
2023-05-30T12:43:53.190Z,23.98
2023-05-30T12:47:03.170Z,23.95
2023-05-30T12:50:07.520Z,24.84
2023-05-30T12:53:10.768Z,24.88
2023-05-30T12:56:15.139Z,25.10
2023-05-30T12:59:18.519Z,24.73
2023-05-30T13:02:21.760Z,25.34
2023-05-30T13:05:24.676Z,25.43
2023-05-30T13:08:27.375Z,25.53
2023-05-30T13:11:30.320Z,24.39
2023-05-30T13:14:33.058Z,25.10
2023-05-30T13:17:36.386Z,26.17
2023-05-30T13:20:39.083Z,25.10
2023-05-30T13:23:42.209Z,26.01
2023-05-30T13:26:45.201Z,26.10
2023-05-30T13:29:48.267Z,26.06
2023-05-30T13:32:50.982Z,26.32
2023-05-30T13:35:54.147Z,25.88
2023-05-30T13:38:57.448Z,25.96
2023-05-30T13:42:00.691Z,26.05
2023-05-30T13:45:04.550Z,25.74
2023-05-30T13:48:08.377Z,25.31
2023-05-30T13:51:12.258Z,25.47
2023-05-30T13:54:15.709Z,24.96
2023-05-30T13:57:18.557Z,25.33
2023-05-30T14:00:21.531Z,24.81
2023-05-30T14:03:24.721Z,24.77
2023-05-30T14:06:28.177Z,24.66
2023-05-30T14:09:31.394Z,24.80
2023-05-30T14:12:34.531Z,24.37
2023-05-30T14:15:37.471Z,24.48
2023-05-30T14:18:43.126Z,24.61
2023-05-30T14:21:46.173Z,24.84
2023-05-30T14:24:48.753Z,24.96
2023-05-30T14:27:52.930Z,24.83
2023-05-30T14:30:55.653Z,25.04
2023-05-30T14:33:58.734Z,24.91
2023-05-30T14:37:02.969Z,25.05
2023-05-30T14:40:06.430Z,24.84
2023-05-30T14:43:11.000Z,25.34
2023-05-30T14:46:14.091Z,25.34
2023-05-30T14:49:16.920Z,24.98
2023-05-30T14:52:19.982Z,25.04
2023-05-30T14:55:22.746Z,24.95
2023-05-30T14:58:25.931Z,25.26
2023-05-30T15:01:44.035Z,25.52
2023-05-30T15:04:48.746Z,25.24
2023-05-30T15:07:51.751Z,24.89
2023-05-30T15:10:54.703Z,25.11
2023-05-30T15:13:57.525Z,25.25
2023-05-30T15:17:00.689Z,25.09
2023-05-30T15:20:03.792Z,24.88
2023-05-30T15:23:07.074Z,24.51
2023-05-30T15:26:09.871Z,24.56
2023-05-30T15:29:12.850Z,24.29
2023-05-30T15:32:15.445Z,24.53
2023-05-30T15:35:18.541Z,24.69
2023-05-30T15:38:21.169Z,24.76
2023-05-30T15:41:24.396Z,24.49
2023-05-30T15:44:27.744Z,24.57
2023-05-30T15:47:30.728Z,24.58
2023-05-30T15:50:33.469Z,24.35
2023-05-30T15:53:36.426Z,24.65
2023-05-30T15:56:39.090Z,24.52
2023-05-30T15:59:42.104Z,24.47
2023-05-30T16:02:44.908Z,24.18
2023-05-30T16:05:47.917Z,24.37
2023-05-30T16:08:50.594Z,24.35
2023-05-30T16:11:53.704Z,23.90
2023-05-30T16:14:56.322Z,23.88
2023-05-30T16:17:59.259Z,23.84
2023-05-30T16:21:02.174Z,24.05
2023-05-30T16:24:05.685Z,24.13
2023-05-30T16:27:08.710Z,23.92
2023-05-30T16:30:12.695Z,23.98
2023-05-30T16:33:15.420Z,24.10
2023-05-30T16:36:20.532Z,23.95
2023-05-30T16:39:23.480Z,23.86
2023-05-30T16:42:26.527Z,23.73
2023-05-30T16:45:29.182Z,23.81
2023-05-30T16:48:32.086Z,23.82
2023-05-30T16:51:34.810Z,23.61
2023-05-30T16:54:37.739Z,23.60
2023-05-30T16:57:40.552Z,23.56
2023-05-30T17:00:43.612Z,23.38
2023-05-30T17:03:47.890Z,23.34
2023-05-30T17:06:50.887Z,23.09
2023-05-30T17:09:53.591Z,23.21
2023-05-30T17:12:57.451Z,23.10
2023-05-30T17:16:00.953Z,23.05
2023-05-30T17:19:09.372Z,22.94
2023-05-30T17:22:17.148Z,22.95
2023-05-30T17:25:20.102Z,22.82
2023-05-30T17:28:22.926Z,22.81
2023-05-30T17:31:26.253Z,22.75
2023-05-30T17:34:29.062Z,22.68
2023-05-30T17:37:32.007Z,22.59
2023-05-30T17:40:34.693Z,22.50
2023-05-30T17:43:37.687Z,22.55
2023-05-30T17:46:40.762Z,22.43
2023-05-30T17:49:46.808Z,22.26
2023-05-30T17:52:50.470Z,22.19
2023-05-30T17:55:54.476Z,21.88
2023-05-30T17:58:57.289Z,21.82
2023-05-30T18:02:00.662Z,21.76
2023-05-30T18:05:04.112Z,21.73
2023-05-30T18:08:07.534Z,21.55
2023-05-30T18:11:10.818Z,21.47
2023-05-30T18:14:17.247Z,21.35
2023-05-30T18:17:20.217Z,21.11
2023-05-30T18:20:23.054Z,20.98
2023-05-30T18:23:26.229Z,20.83
2023-05-30T18:26:28.976Z,20.71
2023-05-30T18:29:36.159Z,20.66
2023-05-30T18:32:38.916Z,20.58
2023-05-30T18:35:41.906Z,20.49
2023-05-30T18:38:47.137Z,20.44
2023-05-30T18:41:50.662Z,20.46
2023-05-30T18:44:53.416Z,20.52
2023-05-30T18:47:56.406Z,20.43
2023-05-30T18:50:59.342Z,20.37
2023-05-30T18:54:05.061Z,20.26
2023-05-30T18:57:09.090Z,20.13
2023-05-30T19:00:13.279Z,20.09
2023-05-30T19:03:16.790Z,20.11
2023-05-30T19:06:19.926Z,20.07
2023-05-30T19:09:23.623Z,20.03
2023-05-30T19:12:26.907Z,20.00
2023-05-30T19:15:29.747Z,20.00
2023-05-30T19:18:32.805Z,20.03
2023-05-30T19:21:35.537Z,19.94
2023-05-30T19:24:38.536Z,19.89
2023-05-30T19:27:41.233Z,19.83
2023-05-30T19:30:44.330Z,19.73
2023-05-30T19:33:47.166Z,19.66
2023-05-30T19:36:50.105Z,19.64
2023-05-30T19:39:52.786Z,19.60
2023-05-30T19:42:56.356Z,19.56
2023-05-30T19:45:59.993Z,19.59
2023-05-30T19:49:03.118Z,19.54
2023-05-30T19:52:06.326Z,19.46
2023-05-30T19:55:09.430Z,19.37
2023-05-30T19:58:12.165Z,19.27
2023-05-30T20:01:15.188Z,19.24
2023-05-30T20:04:18.203Z,19.18
2023-05-30T20:07:21.021Z,19.09
2023-05-30T20:10:23.974Z,19.07
2023-05-30T20:13:26.626Z,19.04
2023-05-30T20:16:29.538Z,19.16
2023-05-30T20:19:32.194Z,19.06
2023-05-30T20:22:35.078Z,18.88
2023-05-30T20:25:37.732Z,18.82
2023-05-30T20:28:40.707Z,18.88
2023-05-30T20:31:43.453Z,18.89
2023-05-30T20:34:46.569Z,18.90
2023-05-30T20:37:49.247Z,18.91
2023-05-30T20:40:52.297Z,18.87
2023-05-30T20:43:55.051Z,18.83
2023-05-30T20:46:58.159Z,18.82
2023-05-30T20:50:04.475Z,18.82
2023-05-30T20:53:07.677Z,18.85
2023-05-30T20:56:10.796Z,18.84
2023-05-30T20:59:13.729Z,18.82
2023-05-30T21:02:16.635Z,18.92
2023-05-30T21:05:19.813Z,19.02
2023-05-30T21:08:22.465Z,18.94
2023-05-30T21:11:25.468Z,18.85
2023-05-30T21:14:28.151Z,18.89
2023-05-30T21:17:31.145Z,18.76
2023-05-30T21:20:34.411Z,18.90
2023-05-30T21:23:37.393Z,19.01
2023-05-30T21:26:40.052Z,19.02
2023-05-30T21:29:42.967Z,18.90
2023-05-30T21:32:45.780Z,18.90
2023-05-30T21:35:48.833Z,18.87
2023-05-30T21:38:51.732Z,18.85
2023-05-30T21:41:54.638Z,18.86
2023-05-30T21:44:57.241Z,18.83
2023-05-30T21:48:00.588Z,18.78
2023-05-30T21:51:03.526Z,18.70
2023-05-30T21:54:07.123Z,18.73
2023-05-30T21:57:10.552Z,18.75
2023-05-30T22:00:14.147Z,18.75
2023-05-30T22:03:17.308Z,18.75
2023-05-30T22:06:21.167Z,18.75
2023-05-30T22:09:26.280Z,18.66
2023-05-30T22:12:29.955Z,18.74
2023-05-30T22:15:32.947Z,18.74
2023-05-30T22:18:35.794Z,18.69
2023-05-30T22:21:43.078Z,18.63
2023-05-30T22:24:50.899Z,18.57
2023-05-30T22:27:53.857Z,18.53
2023-05-30T22:30:56.537Z,18.42
2023-05-30T22:33:59.551Z,18.37
2023-05-30T22:37:02.355Z,18.49
2023-05-30T22:40:06.390Z,18.50
2023-05-30T22:43:09.097Z,18.46
2023-05-30T22:46:12.326Z,18.60
2023-05-30T22:49:14.971Z,18.63
2023-05-30T22:52:18.828Z,18.64
2023-05-30T22:55:21.622Z,18.54
2023-05-30T22:58:24.591Z,18.50
2023-05-30T23:01:27.845Z,18.48
2023-05-30T23:04:30.850Z,18.56
2023-05-30T23:07:33.729Z,18.47
2023-05-30T23:10:36.841Z,18.50
2023-05-30T23:13:39.536Z,18.36
2023-05-30T23:16:42.644Z,18.49
2023-05-30T23:19:45.533Z,18.50
2023-05-30T23:22:48.427Z,18.51
2023-05-30T23:25:51.959Z,18.43
2023-05-30T23:28:55.050Z,18.46
2023-05-30T23:31:57.769Z,18.43
2023-05-30T23:35:00.754Z,18.36
2023-05-30T23:38:03.466Z,18.28
2023-05-30T23:41:06.553Z,18.24
2023-05-30T23:44:09.289Z,18.02
2023-05-30T23:47:12.266Z,17.88
2023-05-30T23:50:15.340Z,17.91
2023-05-30T23:53:18.448Z,17.91
2023-05-30T23:56:21.214Z,17.76
2023-05-30T23:59:24.143Z,17.71
